El Paso, Texas
Current Conditions -  °F | °C
As of 11:51 AM on Sunday 21 Dec 2014 (Local Time) from KELP Reporting Station
Broken Clouds Broken Clouds  
Wind Chill: 54°   Ceiling: 23000
Heat Index: 54°   Visibility: 10mi
Dew Point: 28°   Wind: 20mph
Humidity: 37%   Direction: 230°SW
Pressure: 30.01"   Gusts: NA
Location:  31.76°N, 106.48°W
Report Text: KELP 211851Z 23017KT 10SM SCT180 BKN230 12/M02 A3001 RMK AO2 SLP137 T01221022 $
Loading
Personal Weather Stations






























Interactive Weather Map New forecast layout! Learn more

10-Day Weather Forecast

Advertisements
Track Severe Weather on mobile